sensor_id;sensor_type;location;lat;lon;timestamp;temperature;humidity
13344;DHT22;6741;48.964;9.406;2023-07-31T00:00:22;13.80;99.90
13344;DHT22;6741;48.964;9.406;2023-07-31T00:02:49;13.80;99.90
13344;DHT22;6741;48.964;9.406;2023-07-31T00:05:16;13.80;99.90
13344;DHT22;6741;48.964;9.406;2023-07-31T00:07:44;13.70;99.90
13344;DHT22;6741;48.964;9.406;2023-07-31T00:10:11;13.70;99.90
13344;DHT22;6741;48.964;9.406;2023-07-31T00:12:38;13.60;99.90
13344;DHT22;6741;48.964;9.406;2023-07-31T00:15:06;13.60;99.90
13344;DHT22;6741;48.964;9.406;2023-07-31T00:17:33;13.60;99.90
13344;DHT22;6741;48.964;9.406;2023-07-31T00:20:00;13.50;99.90
13344;DHT22;6741;48.964;9.406;2023-07-31T00:22:26;13.50;99.90
13344;DHT22;6741;48.964;9.406;2023-07-31T00:24:55;13.40;99.90
13344;DHT22;6741;48.964;9.406;2023-07-31T00:27:22;13.40;99.90
13344;DHT22;6741;48.964;9.406;2023-07-31T00:29:49;13.40;99.90
13344;DHT22;6741;48.964;9.406;2023-07-31T00:32:16;13.40;99.90
13344;DHT22;6741;48.964;9.406;2023-07-31T00:34:43;13.40;99.90
13344;DHT22;6741;48.964;9.406;2023-07-31T00:37:10;13.30;99.90
13344;DHT22;6741;48.964;9.406;2023-07-31T00:39:37;13.30;99.90
13344;DHT22;6741;48.964;9.406;2023-07-31T00:42:06;13.30;99.90
13344;DHT22;6741;48.964;9.406;2023-07-31T00:44:33;13.30;99.90
13344;DHT22;6741;48.964;9.406;2023-07-31T00:47:00;13.30;99.90
13344;DHT22;6741;48.964;9.406;2023-07-31T00:49:27;13.40;99.90
13344;DHT22;6741;48.964;9.406;2023-07-31T00:51:54;13.40;99.90
13344;DHT22;6741;48.964;9.406;2023-07-31T00:54:23;13.50;99.90
13344;DHT22;6741;48.964;9.406;2023-07-31T00:56:50;13.50;99.90
13344;DHT22;6741;48.964;9.406;2023-07-31T00:59:20;13.50;99.90
13344;DHT22;6741;48.964;9.406;2023-07-31T01:01:47;13.50;99.90
13344;DHT22;6741;48.964;9.406;2023-07-31T01:04:14;13.50;99.90
13344;DHT22;6741;48.964;9.406;2023-07-31T01:06:46;13.50;99.90
13344;DHT22;6741;48.964;9.406;2023-07-31T01:09:22;13.60;99.90
13344;DHT22;6741;48.964;9.406;2023-07-31T01:11:53;13.60;99.90
13344;DHT22;6741;48.964;9.406;2023-07-31T01:14:24;13.60;99.90
13344;DHT22;6741;48.964;9.406;2023-07-31T01:16:51;13.60;99.90
13344;DHT22;6741;48.964;9.406;2023-07-31T01:19:22;13.60;99.90
13344;DHT22;6741;48.964;9.406;2023-07-31T01:22:12;13.60;99.90
13344;DHT22;6741;48.964;9.406;2023-07-31T01:24:54;13.60;99.90
13344;DHT22;6741;48.964;9.406;2023-07-31T01:27:24;13.60;99.90
13344;DHT22;6741;48.964;9.406;2023-07-31T01:29:58;13.60;99.90
13344;DHT22;6741;48.964;9.406;2023-07-31T01:32:28;13.50;99.90
13344;DHT22;6741;48.964;9.406;2023-07-31T01:34:56;13.50;99.90
13344;DHT22;6741;48.964;9.406;2023-07-31T01:37:28;13.40;99.90
13344;DHT22;6741;48.964;9.406;2023-07-31T01:39:55;13.50;99.90
13344;DHT22;6741;48.964;9.406;2023-07-31T01:42:23;13.50;99.90
13344;DHT22;6741;48.964;9.406;2023-07-31T01:44:50;13.50;99.90
13344;DHT22;6741;48.964;9.406;2023-07-31T01:47:17;13.50;99.90
13344;DHT22;6741;48.964;9.406;2023-07-31T01:49:44;13.40;99.90
13344;DHT22;6741;48.964;9.406;2023-07-31T01:52:11;13.40;99.90
13344;DHT22;6741;48.964;9.406;2023-07-31T01:54:38;13.40;99.90
13344;DHT22;6741;48.964;9.406;2023-07-31T01:57:05;13.40;99.90
13344;DHT22;6741;48.964;9.406;2023-07-31T01:59:33;13.40;99.90
13344;DHT22;6741;48.964;9.406;2023-07-31T02:02:00;13.40;99.90
13344;DHT22;6741;48.964;9.406;2023-07-31T02:04:27;13.40;99.90
13344;DHT22;6741;48.964;9.406;2023-07-31T02:06:54;13.40;99.90
13344;DHT22;6741;48.964;9.406;2023-07-31T02:09:21;13.40;99.90
13344;DHT22;6741;48.964;9.406;2023-07-31T02:11:48;13.40;99.90
13344;DHT22;6741;48.964;9.406;2023-07-31T02:14:15;13.40;99.90
13344;DHT22;6741;48.964;9.406;2023-07-31T02:16:43;13.30;99.90
13344;DHT22;6741;48.964;9.406;2023-07-31T02:19:10;13.30;99.90
13344;DHT22;6741;48.964;9.406;2023-07-31T02:21:36;13.20;99.90
13344;DHT22;6741;48.964;9.406;2023-07-31T02:24:04;13.20;99.90
13344;DHT22;6741;48.964;9.406;2023-07-31T02:26:31;13.20;99.90
13344;DHT22;6741;48.964;9.406;2023-07-31T02:28:58;13.20;99.90
13344;DHT22;6741;48.964;9.406;2023-07-31T02:31:24;13.10;99.90
13344;DHT22;6741;48.964;9.406;2023-07-31T02:33:53;13.10;99.90
13344;DHT22;6741;48.964;9.406;2023-07-31T02:36:19;13.20;99.90
13344;DHT22;6741;48.964;9.406;2023-07-31T02:38:46;13.10;99.90
13344;DHT22;6741;48.964;9.406;2023-07-31T02:41:13;13.10;99.90
13344;DHT22;6741;48.964;9.406;2023-07-31T02:43:40;13.10;99.90
13344;DHT22;6741;48.964;9.406;2023-07-31T02:46:07;13.20;99.90
13344;DHT22;6741;48.964;9.406;2023-07-31T02:48:34;13.20;99.90
13344;DHT22;6741;48.964;9.406;2023-07-31T02:51:02;13.20;99.90
13344;DHT22;6741;48.964;9.406;2023-07-31T02:53:29;13.30;99.90
13344;DHT22;6741;48.964;9.406;2023-07-31T02:55:56;13.30;99.90
13344;DHT22;6741;48.964;9.406;2023-07-31T02:58:23;13.20;99.90
13344;DHT22;6741;48.964;9.406;2023-07-31T03:00:50;13.20;99.90
13344;DHT22;6741;48.964;9.406;2023-07-31T03:03:16;13.20;99.90
13344;DHT22;6741;48.964;9.406;2023-07-31T03:05:43;13.20;99.90
13344;DHT22;6741;48.964;9.406;2023-07-31T03:08:11;13.10;99.90
13344;DHT22;6741;48.964;9.406;2023-07-31T03:10:38;13.10;99.90
13344;DHT22;6741;48.964;9.406;2023-07-31T03:13:05;13.10;99.90
13344;DHT22;6741;48.964;9.406;2023-07-31T03:15:32;13.00;99.90
13344;DHT22;6741;48.964;9.406;2023-07-31T03:17:59;13.00;99.90
13344;DHT22;6741;48.964;9.406;2023-07-31T03:20:26;13.00;99.90
13344;DHT22;6741;48.964;9.406;2023-07-31T03:22:53;13.00;99.90
13344;DHT22;6741;48.964;9.406;2023-07-31T03:25:21;13.00;99.90
13344;DHT22;6741;48.964;9.406;2023-07-31T03:27:48;13.00;99.90
13344;DHT22;6741;48.964;9.406;2023-07-31T03:30:14;13.00;99.90
13344;DHT22;6741;48.964;9.406;2023-07-31T03:32:41;13.00;99.90
13344;DHT22;6741;48.964;9.406;2023-07-31T03:35:08;12.90;99.90
13344;DHT22;6741;48.964;9.406;2023-07-31T03:37:35;12.80;99.90
13344;DHT22;6741;48.964;9.406;2023-07-31T03:40:02;12.80;99.90
13344;DHT22;6741;48.964;9.406;2023-07-31T03:42:31;12.80;99.90
13344;DHT22;6741;48.964;9.406;2023-07-31T03:44:58;12.80;99.90
13344;DHT22;6741;48.964;9.406;2023-07-31T03:47:25;12.80;99.90
13344;DHT22;6741;48.964;9.406;2023-07-31T03:49:52;12.70;99.90
13344;DHT22;6741;48.964;9.406;2023-07-31T03:52:18;12.80;99.90
13344;DHT22;6741;48.964;9.406;2023-07-31T03:54:45;12.70;99.90
13344;DHT22;6741;48.964;9.406;2023-07-31T03:57:12;12.70;99.90
13344;DHT22;6741;48.964;9.406;2023-07-31T03:59:40;12.70;99.90
13344;DHT22;6741;48.964;9.406;2023-07-31T04:02:07;12.70;99.90
13344;DHT22;6741;48.964;9.406;2023-07-31T04:04:34;12.60;99.90
13344;DHT22;6741;48.964;9.406;2023-07-31T04:07:01;12.70;99.90
13344;DHT22;6741;48.964;9.406;2023-07-31T04:09:28;12.70;99.90
13344;DHT22;6741;48.964;9.406;2023-07-31T04:11:55;12.70;99.90
13344;DHT22;6741;48.964;9.406;2023-07-31T04:14:21;12.60;99.90
13344;DHT22;6741;48.964;9.406;2023-07-31T04:16:50;12.60;99.90
13344;DHT22;6741;48.964;9.406;2023-07-31T04:19:17;12.60;99.90
13344;DHT22;6741;48.964;9.406;2023-07-31T04:21:44;12.60;99.90
13344;DHT22;6741;48.964;9.406;2023-07-31T04:24:11;12.60;99.90
13344;DHT22;6741;48.964;9.406;2023-07-31T04:26:38;12.60;99.90
13344;DHT22;6741;48.964;9.406;2023-07-31T04:29:05;12.60;99.90
13344;DHT22;6741;48.964;9.406;2023-07-31T04:31:32;12.60;99.90
13344;DHT22;6741;48.964;9.406;2023-07-31T04:34:00;12.70;99.90
13344;DHT22;6741;48.964;9.406;2023-07-31T04:36:27;12.70;99.90
13344;DHT22;6741;48.964;9.406;2023-07-31T04:38:53;12.70;99.90
13344;DHT22;6741;48.964;9.406;2023-07-31T04:41:21;12.70;99.90
13344;DHT22;6741;48.964;9.406;2023-07-31T04:43:48;12.90;99.90
13344;DHT22;6741;48.964;9.406;2023-07-31T04:46:14;12.90;99.90
13344;DHT22;6741;48.964;9.406;2023-07-31T04:48:42;12.90;99.90
13344;DHT22;6741;48.964;9.406;2023-07-31T04:51:10;13.00;99.90
13344;DHT22;6741;48.964;9.406;2023-07-31T04:53:37;13.00;99.90
13344;DHT22;6741;48.964;9.406;2023-07-31T04:56:04;13.10;99.90
13344;DHT22;6741;48.964;9.406;2023-07-31T04:58:31;13.10;99.90
13344;DHT22;6741;48.964;9.406;2023-07-31T05:00:57;13.20;99.90
13344;DHT22;6741;48.964;9.406;2023-07-31T05:03:24;13.30;99.90
13344;DHT22;6741;48.964;9.406;2023-07-31T05:05:51;13.40;99.90
13344;DHT22;6741;48.964;9.406;2023-07-31T05:08:19;13.50;99.90
13344;DHT22;6741;48.964;9.406;2023-07-31T05:10:46;13.60;99.90
13344;DHT22;6741;48.964;9.406;2023-07-31T05:13:14;13.70;99.90
13344;DHT22;6741;48.964;9.406;2023-07-31T05:15:41;13.80;99.90
13344;DHT22;6741;48.964;9.406;2023-07-31T05:18:08;13.90;99.90
13344;DHT22;6741;48.964;9.406;2023-07-31T05:20:34;14.00;99.90
13344;DHT22;6741;48.964;9.406;2023-07-31T05:23:01;14.00;99.90
13344;DHT22;6741;48.964;9.406;2023-07-31T05:25:30;14.00;99.90
13344;DHT22;6741;48.964;9.406;2023-07-31T05:27:56;14.10;99.90
13344;DHT22;6741;48.964;9.406;2023-07-31T05:30:23;14.10;99.90
13344;DHT22;6741;48.964;9.406;2023-07-31T05:32:50;14.10;99.90
13344;DHT22;6741;48.964;9.406;2023-07-31T05:35:17;14.00;99.90
13344;DHT22;6741;48.964;9.406;2023-07-31T05:37:44;14.00;99.90
13344;DHT22;6741;48.964;9.406;2023-07-31T05:40:11;14.10;99.90
13344;DHT22;6741;48.964;9.406;2023-07-31T05:42:39;14.10;99.90
13344;DHT22;6741;48.964;9.406;2023-07-31T05:45:07;14.30;99.90
13344;DHT22;6741;48.964;9.406;2023-07-31T05:47:34;14.30;99.90
13344;DHT22;6741;48.964;9.406;2023-07-31T05:50:01;14.40;99.90
13344;DHT22;6741;48.964;9.406;2023-07-31T05:52:27;14.60;99.90
13344;DHT22;6741;48.964;9.406;2023-07-31T05:54:55;14.90;99.90
13344;DHT22;6741;48.964;9.406;2023-07-31T05:57:22;15.10;99.90
13344;DHT22;6741;48.964;9.406;2023-07-31T05:59:50;15.40;99.90
13344;DHT22;6741;48.964;9.406;2023-07-31T06:02:18;15.50;99.90
13344;DHT22;6741;48.964;9.406;2023-07-31T06:04:45;15.60;99.90
13344;DHT22;6741;48.964;9.406;2023-07-31T06:07:12;15.70;99.90
13344;DHT22;6741;48.964;9.406;2023-07-31T06:09:39;15.80;99.90
13344;DHT22;6741;48.964;9.406;2023-07-31T06:12:06;16.00;99.90
13344;DHT22;6741;48.964;9.406;2023-07-31T06:14:34;16.10;99.90
13344;DHT22;6741;48.964;9.406;2023-07-31T06:17:02;16.30;99.90
13344;DHT22;6741;48.964;9.406;2023-07-31T06:19:29;16.40;99.90
13344;DHT22;6741;48.964;9.406;2023-07-31T06:21:56;16.60;99.90
13344;DHT22;6741;48.964;9.406;2023-07-31T06:24:23;16.80;99.90
13344;DHT22;6741;48.964;9.406;2023-07-31T06:26:50;16.90;99.90
13344;DHT22;6741;48.964;9.406;2023-07-31T06:29:17;17.10;99.90
13344;DHT22;6741;48.964;9.406;2023-07-31T06:31:44;17.30;99.90
13344;DHT22;6741;48.964;9.406;2023-07-31T06:34:12;17.60;99.90
13344;DHT22;6741;48.964;9.406;2023-07-31T06:36:39;17.80;99.90
13344;DHT22;6741;48.964;9.406;2023-07-31T06:39:06;18.00;99.90
13344;DHT22;6741;48.964;9.406;2023-07-31T06:41:32;18.10;99.90
13344;DHT22;6741;48.964;9.406;2023-07-31T06:43:59;18.20;99.90
13344;DHT22;6741;48.964;9.406;2023-07-31T06:46:26;18.40;99.90
13344;DHT22;6741;48.964;9.406;2023-07-31T06:48:53;18.40;99.90
13344;DHT22;6741;48.964;9.406;2023-07-31T06:51:22;18.60;99.90
13344;DHT22;6741;48.964;9.406;2023-07-31T06:53:48;18.70;99.90
13344;DHT22;6741;48.964;9.406;2023-07-31T06:56:15;18.70;99.90
13344;DHT22;6741;48.964;9.406;2023-07-31T06:58:42;18.90;99.90
13344;DHT22;6741;48.964;9.406;2023-07-31T07:01:09;19.00;99.90
13344;DHT22;6741;48.964;9.406;2023-07-31T07:03:36;19.00;99.90
13344;DHT22;6741;48.964;9.406;2023-07-31T07:06:03;19.20;99.90
13344;DHT22;6741;48.964;9.406;2023-07-31T07:08:31;19.40;99.90
13344;DHT22;6741;48.964;9.406;2023-07-31T07:10:58;19.70;99.90
13344;DHT22;6741;48.964;9.406;2023-07-31T07:13:25;19.80;99.90
13344;DHT22;6741;48.964;9.406;2023-07-31T07:15:52;19.80;99.90
13344;DHT22;6741;48.964;9.406;2023-07-31T07:18:19;20.10;99.90
13344;DHT22;6741;48.964;9.406;2023-07-31T07:20:47;20.10;99.90
13344;DHT22;6741;48.964;9.406;2023-07-31T07:23:14;20.30;99.90
13344;DHT22;6741;48.964;9.406;2023-07-31T07:25:43;20.30;99.90
13344;DHT22;6741;48.964;9.406;2023-07-31T07:28:10;20.40;99.90
13344;DHT22;6741;48.964;9.406;2023-07-31T07:30:37;20.40;99.90
13344;DHT22;6741;48.964;9.406;2023-07-31T07:33:04;20.40;99.90
13344;DHT22;6741;48.964;9.406;2023-07-31T07:35:33;20.40;99.90
13344;DHT22;6741;48.964;9.406;2023-07-31T07:38:00;20.40;99.90
13344;DHT22;6741;48.964;9.406;2023-07-31T07:40:27;20.30;99.90
13344;DHT22;6741;48.964;9.406;2023-07-31T07:42:55;20.20;99.90
13344;DHT22;6741;48.964;9.406;2023-07-31T07:45:22;20.20;99.90
13344;DHT22;6741;48.964;9.406;2023-07-31T07:47:49;20.30;99.90
13344;DHT22;6741;48.964;9.406;2023-07-31T07:50:16;20.30;99.90
13344;DHT22;6741;48.964;9.406;2023-07-31T07:52:42;20.20;99.90
13344;DHT22;6741;48.964;9.406;2023-07-31T07:55:09;20.10;99.90
13344;DHT22;6741;48.964;9.406;2023-07-31T07:57:36;20.20;99.90
13344;DHT22;6741;48.964;9.406;2023-07-31T08:00:06;20.30;99.90
13344;DHT22;6741;48.964;9.406;2023-07-31T08:02:33;20.40;99.90
13344;DHT22;6741;48.964;9.406;2023-07-31T08:05:00;20.70;99.90
13344;DHT22;6741;48.964;9.406;2023-07-31T08:07:26;20.90;99.90
13344;DHT22;6741;48.964;9.406;2023-07-31T08:09:53;21.00;99.90
13344;DHT22;6741;48.964;9.406;2023-07-31T08:12:20;21.20;99.90
13344;DHT22;6741;48.964;9.406;2023-07-31T08:14:47;21.30;99.90
13344;DHT22;6741;48.964;9.406;2023-07-31T08:17:15;21.20;99.90
13344;DHT22;6741;48.964;9.406;2023-07-31T08:19:42;21.30;99.90
13344;DHT22;6741;48.964;9.406;2023-07-31T08:22:09;21.40;99.90
13344;DHT22;6741;48.964;9.406;2023-07-31T08:24:36;21.30;99.90
13344;DHT22;6741;48.964;9.406;2023-07-31T08:27:03;21.30;99.90
13344;DHT22;6741;48.964;9.406;2023-07-31T08:29:32;21.40;99.90
13344;DHT22;6741;48.964;9.406;2023-07-31T08:31:59;21.60;99.90
13344;DHT22;6741;48.964;9.406;2023-07-31T08:34:27;21.60;99.90
13344;DHT22;6741;48.964;9.406;2023-07-31T08:36:54;21.70;99.90
13344;DHT22;6741;48.964;9.406;2023-07-31T08:39:21;21.50;99.90
13344;DHT22;6741;48.964;9.406;2023-07-31T08:41:47;21.60;99.90
13344;DHT22;6741;48.964;9.406;2023-07-31T08:44:15;21.40;99.90
13344;DHT22;6741;48.964;9.406;2023-07-31T08:46:44;21.30;99.90
13344;DHT22;6741;48.964;9.406;2023-07-31T08:49:12;21.30;99.90
13344;DHT22;6741;48.964;9.406;2023-07-31T08:51:41;21.60;99.90
13344;DHT22;6741;48.964;9.406;2023-07-31T08:54:08;21.80;99.90
13344;DHT22;6741;48.964;9.406;2023-07-31T08:56:36;21.80;99.90
13344;DHT22;6741;48.964;9.406;2023-07-31T08:59:04;21.90;99.90
13344;DHT22;6741;48.964;9.406;2023-07-31T09:01:38;21.80;99.90
13344;DHT22;6741;48.964;9.406;2023-07-31T09:04:07;21.60;99.90
13344;DHT22;6741;48.964;9.406;2023-07-31T09:06:35;21.50;99.90
13344;DHT22;6741;48.964;9.406;2023-07-31T09:09:04;21.60;99.90
13344;DHT22;6741;48.964;9.406;2023-07-31T09:11:32;21.70;99.90
13344;DHT22;6741;48.964;9.406;2023-07-31T09:14:00;21.50;99.90
13344;DHT22;6741;48.964;9.406;2023-07-31T09:16:33;21.60;99.90
13344;DHT22;6741;48.964;9.406;2023-07-31T09:19:00;21.60;99.90
13344;DHT22;6741;48.964;9.406;2023-07-31T09:21:29;21.40;99.90
13344;DHT22;6741;48.964;9.406;2023-07-31T09:23:56;21.20;99.90
13344;DHT22;6741;48.964;9.406;2023-07-31T09:26:31;21.10;99.90
13344;DHT22;6741;48.964;9.406;2023-07-31T09:28:59;21.40;99.90
13344;DHT22;6741;48.964;9.406;2023-07-31T09:31:33;21.60;99.90
13344;DHT22;6741;48.964;9.406;2023-07-31T09:34:00;21.50;99.90
13344;DHT22;6741;48.964;9.406;2023-07-31T09:36:29;21.60;99.90
13344;DHT22;6741;48.964;9.406;2023-07-31T09:39:02;21.90;99.90
13344;DHT22;6741;48.964;9.406;2023-07-31T09:41:30;22.10;99.90
13344;DHT22;6741;48.964;9.406;2023-07-31T09:43:57;22.10;99.90
13344;DHT22;6741;48.964;9.406;2023-07-31T09:46:27;22.50;99.90
13344;DHT22;6741;48.964;9.406;2023-07-31T09:49:04;22.50;99.90
13344;DHT22;6741;48.964;9.406;2023-07-31T09:51:31;22.10;99.90
13344;DHT22;6741;48.964;9.406;2023-07-31T09:54:04;22.10;99.90
13344;DHT22;6741;48.964;9.406;2023-07-31T09:56:33;21.90;99.90
13344;DHT22;6741;48.964;9.406;2023-07-31T09:59:01;21.80;99.90
13344;DHT22;6741;48.964;9.406;2023-07-31T10:01:29;21.90;99.90
13344;DHT22;6741;48.964;9.406;2023-07-31T10:03:56;22.50;99.90
13344;DHT22;6741;48.964;9.406;2023-07-31T10:06:24;22.70;99.90
13344;DHT22;6741;48.964;9.406;2023-07-31T10:08:52;22.30;99.90
13344;DHT22;6741;48.964;9.406;2023-07-31T10:11:22;22.10;99.90
13344;DHT22;6741;48.964;9.406;2023-07-31T10:13:53;22.10;99.90
13344;DHT22;6741;48.964;9.406;2023-07-31T10:16:21;22.40;99.90
13344;DHT22;6741;48.964;9.406;2023-07-31T10:18:49;22.50;99.90
13344;DHT22;6741;48.964;9.406;2023-07-31T10:21:18;22.00;99.90
13344;DHT22;6741;48.964;9.406;2023-07-31T10:23:45;22.10;99.90
13344;DHT22;6741;48.964;9.406;2023-07-31T10:26:13;22.20;99.90
13344;DHT22;6741;48.964;9.406;2023-07-31T10:28:41;22.10;99.90
13344;DHT22;6741;48.964;9.406;2023-07-31T10:31:11;21.90;99.90
13344;DHT22;6741;48.964;9.406;2023-07-31T10:33:38;22.30;99.90
13344;DHT22;6741;48.964;9.406;2023-07-31T10:36:14;23.00;99.90
13344;DHT22;6741;48.964;9.406;2023-07-31T10:38:43;23.00;99.90
13344;DHT22;6741;48.964;9.406;2023-07-31T10:41:10;22.90;99.90
13344;DHT22;6741;48.964;9.406;2023-07-31T10:43:38;22.80;99.90
13344;DHT22;6741;48.964;9.406;2023-07-31T10:46:10;22.60;99.90
13344;DHT22;6741;48.964;9.406;2023-07-31T10:48:38;22.60;99.90
13344;DHT22;6741;48.964;9.406;2023-07-31T10:51:08;22.80;99.90
13344;DHT22;6741;48.964;9.406;2023-07-31T10:53:36;22.80;99.90
13344;DHT22;6741;48.964;9.406;2023-07-31T10:56:04;22.90;99.90
13344;DHT22;6741;48.964;9.406;2023-07-31T10:58:32;23.10;99.90
13344;DHT22;6741;48.964;9.406;2023-07-31T11:00:59;23.00;99.90
13344;DHT22;6741;48.964;9.406;2023-07-31T11:03:41;22.80;99.90
13344;DHT22;6741;48.964;9.406;2023-07-31T11:06:08;22.20;99.90
13344;DHT22;6741;48.964;9.406;2023-07-31T11:08:41;22.20;99.90
13344;DHT22;6741;48.964;9.406;2023-07-31T11:11:10;22.10;99.90
13344;DHT22;6741;48.964;9.406;2023-07-31T11:13:41;22.10;99.90
13344;DHT22;6741;48.964;9.406;2023-07-31T11:16:09;22.20;99.90
13344;DHT22;6741;48.964;9.406;2023-07-31T11:18:40;22.30;99.90
13344;DHT22;6741;48.964;9.406;2023-07-31T11:21:07;22.60;99.90
13344;DHT22;6741;48.964;9.406;2023-07-31T11:23:37;23.10;99.90
13344;DHT22;6741;48.964;9.406;2023-07-31T11:26:05;23.30;99.90
13344;DHT22;6741;48.964;9.406;2023-07-31T11:28:33;23.30;99.90
13344;DHT22;6741;48.964;9.406;2023-07-31T11:31:01;23.40;99.90
13344;DHT22;6741;48.964;9.406;2023-07-31T11:33:28;23.50;99.90
13344;DHT22;6741;48.964;9.406;2023-07-31T11:35:56;23.40;99.90
13344;DHT22;6741;48.964;9.406;2023-07-31T11:38:24;23.50;99.90
13344;DHT22;6741;48.964;9.406;2023-07-31T11:40:51;23.40;99.90
13344;DHT22;6741;48.964;9.406;2023-07-31T11:43:19;23.10;99.90
13344;DHT22;6741;48.964;9.406;2023-07-31T11:45:47;23.30;99.90
13344;DHT22;6741;48.964;9.406;2023-07-31T11:48:21;23.60;99.90
13344;DHT22;6741;48.964;9.406;2023-07-31T11:50:49;24.20;99.90
13344;DHT22;6741;48.964;9.406;2023-07-31T11:53:21;24.70;99.90
13344;DHT22;6741;48.964;9.406;2023-07-31T11:55:49;25.50;99.90
13344;DHT22;6741;48.964;9.406;2023-07-31T11:58:17;26.20;99.90
13344;DHT22;6741;48.964;9.406;2023-07-31T12:00:45;26.30;99.90
13344;DHT22;6741;48.964;9.406;2023-07-31T12:03:12;26.00;99.90
13344;DHT22;6741;48.964;9.406;2023-07-31T12:05:39;25.10;99.90
13344;DHT22;6741;48.964;9.406;2023-07-31T12:08:10;24.30;99.90
13344;DHT22;6741;48.964;9.406;2023-07-31T12:10:39;24.80;99.90
13344;DHT22;6741;48.964;9.406;2023-07-31T12:13:20;25.20;99.90
13344;DHT22;6741;48.964;9.406;2023-07-31T12:15:48;25.50;99.90
13344;DHT22;6741;48.964;9.406;2023-07-31T12:18:19;25.90;99.90
13344;DHT22;6741;48.964;9.406;2023-07-31T12:20:48;25.80;99.90
13344;DHT22;6741;48.964;9.406;2023-07-31T12:23:16;26.10;99.90
13344;DHT22;6741;48.964;9.406;2023-07-31T12:25:45;26.40;99.90
13344;DHT22;6741;48.964;9.406;2023-07-31T12:28:12;25.50;99.90
13344;DHT22;6741;48.964;9.406;2023-07-31T12:30:40;25.30;99.90
13344;DHT22;6741;48.964;9.406;2023-07-31T12:33:12;25.30;99.90
13344;DHT22;6741;48.964;9.406;2023-07-31T12:35:42;25.40;99.90
13344;DHT22;6741;48.964;9.406;2023-07-31T12:38:10;25.40;99.90
13344;DHT22;6741;48.964;9.406;2023-07-31T12:40:38;25.40;99.90
13344;DHT22;6741;48.964;9.406;2023-07-31T12:43:07;24.70;99.90
13344;DHT22;6741;48.964;9.406;2023-07-31T12:45:35;24.20;99.90
13344;DHT22;6741;48.964;9.406;2023-07-31T12:48:02;24.60;99.90
13344;DHT22;6741;48.964;9.406;2023-07-31T12:50:28;25.50;99.90
13344;DHT22;6741;48.964;9.406;2023-07-31T12:52:57;26.00;99.90
13344;DHT22;6741;48.964;9.406;2023-07-31T12:55:38;25.60;99.90
13344;DHT22;6741;48.964;9.406;2023-07-31T12:58:06;25.60;99.90
13344;DHT22;6741;48.964;9.406;2023-07-31T13:00:33;25.50;99.90
13344;DHT22;6741;48.964;9.406;2023-07-31T13:03:00;25.10;99.90
13344;DHT22;6741;48.964;9.406;2023-07-31T13:05:28;24.80;99.90
13344;DHT22;6741;48.964;9.406;2023-07-31T13:07:55;24.10;99.90
13344;DHT22;6741;48.964;9.406;2023-07-31T13:10:22;24.10;99.90
13344;DHT22;6741;48.964;9.406;2023-07-31T13:12:49;24.20;99.90
13344;DHT22;6741;48.964;9.406;2023-07-31T13:15:18;24.30;99.90
13344;DHT22;6741;48.964;9.406;2023-07-31T13:17:45;24.00;99.90
13344;DHT22;6741;48.964;9.406;2023-07-31T13:20:13;23.90;99.90
13344;DHT22;6741;48.964;9.406;2023-07-31T13:22:40;23.70;99.90
13344;DHT22;6741;48.964;9.406;2023-07-31T13:25:07;23.80;99.90
13344;DHT22;6741;48.964;9.406;2023-07-31T13:27:35;23.80;99.90
13344;DHT22;6741;48.964;9.406;2023-07-31T13:30:02;23.90;99.90
13344;DHT22;6741;48.964;9.406;2023-07-31T13:32:30;23.80;99.90
13344;DHT22;6741;48.964;9.406;2023-07-31T13:34:57;23.90;99.90
13344;DHT22;6741;48.964;9.406;2023-07-31T13:37:24;23.60;99.90
13344;DHT22;6741;48.964;9.406;2023-07-31T13:39:51;23.50;99.90
13344;DHT22;6741;48.964;9.406;2023-07-31T13:42:17;23.30;99.90
13344;DHT22;6741;48.964;9.406;2023-07-31T13:44:44;23.20;99.90
13344;DHT22;6741;48.964;9.406;2023-07-31T13:47:11;23.30;99.90
13344;DHT22;6741;48.964;9.406;2023-07-31T13:49:40;23.50;99.90
13344;DHT22;6741;48.964;9.406;2023-07-31T13:52:08;23.80;99.90
13344;DHT22;6741;48.964;9.406;2023-07-31T13:54:35;24.10;99.90
13344;DHT22;6741;48.964;9.406;2023-07-31T13:57:02;23.90;99.90
13344;DHT22;6741;48.964;9.406;2023-07-31T13:59:29;23.50;99.90
13344;DHT22;6741;48.964;9.406;2023-07-31T14:01:56;23.70;99.90
13344;DHT22;6741;48.964;9.406;2023-07-31T14:04:23;23.70;99.90
13344;DHT22;6741;48.964;9.406;2023-07-31T14:06:51;23.70;99.90
13344;DHT22;6741;48.964;9.406;2023-07-31T14:09:18;24.00;99.90
13344;DHT22;6741;48.964;9.406;2023-07-31T14:11:45;24.00;99.90
13344;DHT22;6741;48.964;9.406;2023-07-31T14:14:12;23.90;99.90
13344;DHT22;6741;48.964;9.406;2023-07-31T14:16:39;23.70;99.90
13344;DHT22;6741;48.964;9.406;2023-07-31T14:19:06;23.90;99.90
13344;DHT22;6741;48.964;9.406;2023-07-31T14:21:34;24.00;99.90
13344;DHT22;6741;48.964;9.406;2023-07-31T14:24:02;24.50;99.90
13344;DHT22;6741;48.964;9.406;2023-07-31T14:26:29;24.60;99.90
13344;DHT22;6741;48.964;9.406;2023-07-31T14:28:56;24.60;99.90
13344;DHT22;6741;48.964;9.406;2023-07-31T14:31:23;24.50;99.90
13344;DHT22;6741;48.964;9.406;2023-07-31T14:33:50;24.10;99.90
13344;DHT22;6741;48.964;9.406;2023-07-31T14:36:17;24.30;99.90
13344;DHT22;6741;48.964;9.406;2023-07-31T14:38:44;24.30;99.90
13344;DHT22;6741;48.964;9.406;2023-07-31T14:41:12;24.60;99.90
13344;DHT22;6741;48.964;9.406;2023-07-31T14:43:39;24.40;99.90
13344;DHT22;6741;48.964;9.406;2023-07-31T14:46:05;24.20;99.90
13344;DHT22;6741;48.964;9.406;2023-07-31T14:48:32;24.30;99.90
13344;DHT22;6741;48.964;9.406;2023-07-31T14:51:00;23.70;99.90
13344;DHT22;6741;48.964;9.406;2023-07-31T14:53:27;24.00;99.90
13344;DHT22;6741;48.964;9.406;2023-07-31T14:55:54;24.20;99.90
13344;DHT22;6741;48.964;9.406;2023-07-31T14:58:22;24.00;99.90
13344;DHT22;6741;48.964;9.406;2023-07-31T15:00:49;23.40;99.90
13344;DHT22;6741;48.964;9.406;2023-07-31T15:03:16;23.80;99.90
13344;DHT22;6741;48.964;9.406;2023-07-31T15:05:43;23.80;99.90
13344;DHT22;6741;48.964;9.406;2023-07-31T15:08:10;23.50;99.90
13344;DHT22;6741;48.964;9.406;2023-07-31T15:10:37;23.30;99.90
13344;DHT22;6741;48.964;9.406;2023-07-31T15:13:02;23.20;99.90
13344;DHT22;6741;48.964;9.406;2023-07-31T15:15:31;23.30;99.90
13344;DHT22;6741;48.964;9.406;2023-07-31T15:17:58;23.10;99.90
13344;DHT22;6741;48.964;9.406;2023-07-31T15:20:24;23.00;99.90
13344;DHT22;6741;48.964;9.406;2023-07-31T15:22:51;22.90;99.90
13344;DHT22;6741;48.964;9.406;2023-07-31T15:25:18;22.90;99.90
13344;DHT22;6741;48.964;9.406;2023-07-31T15:27:45;22.80;99.90
13344;DHT22;6741;48.964;9.406;2023-07-31T15:30:12;23.10;99.90
13344;DHT22;6741;48.964;9.406;2023-07-31T15:32:40;23.50;99.90
13344;DHT22;6741;48.964;9.406;2023-07-31T15:35:07;23.80;99.90
13344;DHT22;6741;48.964;9.406;2023-07-31T15:37:34;23.70;99.90
13344;DHT22;6741;48.964;9.406;2023-07-31T15:40:01;24.00;99.90
13344;DHT22;6741;48.964;9.406;2023-07-31T15:42:28;24.10;99.90
13344;DHT22;6741;48.964;9.406;2023-07-31T15:44:55;24.70;99.90
13344;DHT22;6741;48.964;9.406;2023-07-31T15:47:22;25.20;99.90